sensor_id;sensor_type;location;lat;lon;timestamp;P1;P2;P0
49644;PMS5003;36494;50.730;-1.932;2022-09-03T00:01:12;44;42;
49644;PMS5003;36494;50.730;-1.932;2022-09-03T00:03:37;52;51;
49644;PMS5003;36494;50.730;-1.932;2022-09-03T00:06:04;54;52;
49644;PMS5003;36494;50.730;-1.932;2022-09-03T00:08:29;55;52;
49644;PMS5003;36494;50.730;-1.932;2022-09-03T00:10:55;58;56;
49644;PMS5003;36494;50.730;-1.932;2022-09-03T00:13:21;58;56;
49644;PMS5003;36494;50.730;-1.932;2022-09-03T00:15:44;57;53;
49644;PMS5003;36494;50.730;-1.932;2022-09-03T00:18:11;51;48;
49644;PMS5003;36494;50.730;-1.932;2022-09-03T00:20:36;49;49;
49644;PMS5003;36494;50.730;-1.932;2022-09-03T00:23:02;52;51;
49644;PMS5003;36494;50.730;-1.932;2022-09-03T00:25:28;52;48;
49644;PMS5003;36494;50.730;-1.932;2022-09-03T00:27:53;54;53;
49644;PMS5003;36494;50.730;-1.932;2022-09-03T00:30:18;50;48;
49644;PMS5003;36494;50.730;-1.932;2022-09-03T00:32:44;45;44;
49644;PMS5003;36494;50.730;-1.932;2022-09-03T00:35:10;50;49;
49644;PMS5003;36494;50.730;-1.932;2022-09-03T00:37:33;48;46;
49644;PMS5003;36494;50.730;-1.932;2022-09-03T00:39:59;45;42;
49644;PMS5003;36494;50.730;-1.932;2022-09-03T00:42:30;44;42;
49644;PMS5003;36494;50.730;-1.932;2022-09-03T00:44:54;48;46;
49644;PMS5003;36494;50.730;-1.932;2022-09-03T00:47:18;48;46;
49644;PMS5003;36494;50.730;-1.932;2022-09-03T00:49:45;44;43;
49644;PMS5003;36494;50.730;-1.932;2022-09-03T00:52:08;46;43;
49644;PMS5003;36494;50.730;-1.932;2022-09-03T00:54:33;45;45;
49644;PMS5003;36494;50.730;-1.932;2022-09-03T00:57:03;50;50;
49644;PMS5003;36494;50.730;-1.932;2022-09-03T00:59:26;41;40;
49644;PMS5003;36494;50.730;-1.932;2022-09-03T01:01:49;48;46;
49644;PMS5003;36494;50.730;-1.932;2022-09-03T01:04:20;46;43;
49644;PMS5003;36494;50.730;-1.932;2022-09-03T01:06:40;52;50;
49644;PMS5003;36494;50.730;-1.932;2022-09-03T01:09:08;48;44;
49644;PMS5003;36494;50.730;-1.932;2022-09-03T01:11:31;47;44;
49644;PMS5003;36494;50.730;-1.932;2022-09-03T01:13:56;48;48;
49644;PMS5003;36494;50.730;-1.932;2022-09-03T01:16:21;44;43;
49644;PMS5003;36494;50.730;-1.932;2022-09-03T01:18:48;51;51;
49644;PMS5003;36494;50.730;-1.932;2022-09-03T01:21:16;48;46;
49644;PMS5003;36494;50.730;-1.932;2022-09-03T01:23:43;56;53;
49644;PMS5003;36494;50.730;-1.932;2022-09-03T01:26:05;56;53;
49644;PMS5003;36494;50.730;-1.932;2022-09-03T01:28:32;48;47;
49644;PMS5003;36494;50.730;-1.932;2022-09-03T01:30:54;53;51;
49644;PMS5003;36494;50.730;-1.932;2022-09-03T01:33:18;51;48;
49644;PMS5003;36494;50.730;-1.932;2022-09-03T01:35:45;56;55;
49644;PMS5003;36494;50.730;-1.932;2022-09-03T01:38:12;51;50;
49644;PMS5003;36494;50.730;-1.932;2022-09-03T01:40:36;49;48;
49644;PMS5003;36494;50.730;-1.932;2022-09-03T01:43:06;54;53;
49644;PMS5003;36494;50.730;-1.932;2022-09-03T01:45:28;49;48;
49644;PMS5003;36494;50.730;-1.932;2022-09-03T01:47:55;57;55;
49644;PMS5003;36494;50.730;-1.932;2022-09-03T01:50:20;53;50;
49644;PMS5003;36494;50.730;-1.932;2022-09-03T01:52:42;58;55;
49644;PMS5003;36494;50.730;-1.932;2022-09-03T01:55:11;57;53;
49644;PMS5003;36494;50.730;-1.932;2022-09-03T01:57:38;57;55;
49644;PMS5003;36494;50.730;-1.932;2022-09-03T02:00:00;62;56;
49644;PMS5003;36494;50.730;-1.932;2022-09-03T02:02:25;58;55;
49644;PMS5003;36494;50.730;-1.932;2022-09-03T02:04:54;58;57;
49644;PMS5003;36494;50.730;-1.932;2022-09-03T02:07:15;60;57;
49644;PMS5003;36494;50.730;-1.932;2022-09-03T02:09:41;63;59;
49644;PMS5003;36494;50.730;-1.932;2022-09-03T02:12:07;60;58;
49644;PMS5003;36494;50.730;-1.932;2022-09-03T02:14:32;68;64;
49644;PMS5003;36494;50.730;-1.932;2022-09-03T02:16:58;59;56;
49644;PMS5003;36494;50.730;-1.932;2022-09-03T02:19:25;58;57;
49644;PMS5003;36494;50.730;-1.932;2022-09-03T02:21:51;63;61;
49644;PMS5003;36494;50.730;-1.932;2022-09-03T02:24:14;59;57;
49644;PMS5003;36494;50.730;-1.932;2022-09-03T02:26:39;62;56;
49644;PMS5003;36494;50.730;-1.932;2022-09-03T02:29:05;55;54;
49644;PMS5003;36494;50.730;-1.932;2022-09-03T02:31:31;56;55;
49644;PMS5003;36494;50.730;-1.932;2022-09-03T02:33:56;51;50;
49644;PMS5003;36494;50.730;-1.932;2022-09-03T02:36:24;60;58;
49644;PMS5003;36494;50.730;-1.932;2022-09-03T02:38:47;60;58;
49644;PMS5003;36494;50.730;-1.932;2022-09-03T02:41:13;58;57;
49644;PMS5003;36494;50.730;-1.932;2022-09-03T02:43:39;62;60;
49644;PMS5003;36494;50.730;-1.932;2022-09-03T02:46:04;57;56;
49644;PMS5003;36494;50.730;-1.932;2022-09-03T02:48:29;60;59;
49644;PMS5003;36494;50.730;-1.932;2022-09-03T02:50:55;50;47;
49644;PMS5003;36494;50.730;-1.932;2022-09-03T02:53:20;56;52;
49644;PMS5003;36494;50.730;-1.932;2022-09-03T02:55:46;67;63;
49644;PMS5003;36494;50.730;-1.932;2022-09-03T02:58:12;61;59;
49644;PMS5003;36494;50.730;-1.932;2022-09-03T03:00:38;56;54;
49644;PMS5003;36494;50.730;-1.932;2022-09-03T03:03:04;60;56;
49644;PMS5003;36494;50.730;-1.932;2022-09-03T03:05:34;66;65;
49644;PMS5003;36494;50.730;-1.932;2022-09-03T03:07:55;58;55;
49644;PMS5003;36494;50.730;-1.932;2022-09-03T03:10:20;66;63;
49644;PMS5003;36494;50.730;-1.932;2022-09-03T03:12:45;52;51;
49644;PMS5003;36494;50.730;-1.932;2022-09-03T03:15:11;56;55;
49644;PMS5003;36494;50.730;-1.932;2022-09-03T03:17:37;55;55;
49644;PMS5003;36494;50.730;-1.932;2022-09-03T03:20:03;58;56;
49644;PMS5003;36494;50.730;-1.932;2022-09-03T03:22:28;60;58;
49644;PMS5003;36494;50.730;-1.932;2022-09-03T03:24:53;56;54;
49644;PMS5003;36494;50.730;-1.932;2022-09-03T03:27:18;58;56;
49644;PMS5003;36494;50.730;-1.932;2022-09-03T03:29:44;52;52;
49644;PMS5003;36494;50.730;-1.932;2022-09-03T03:32:09;57;55;
49644;PMS5003;36494;50.730;-1.932;2022-09-03T03:34:34;51;49;
49644;PMS5003;36494;50.730;-1.932;2022-09-03T03:36:59;53;52;
49644;PMS5003;36494;50.730;-1.932;2022-09-03T03:39:25;53;51;
49644;PMS5003;36494;50.730;-1.932;2022-09-03T03:41:50;56;56;
49644;PMS5003;36494;50.730;-1.932;2022-09-03T03:44:16;61;57;
49644;PMS5003;36494;50.730;-1.932;2022-09-03T03:46:41;58;57;
49644;PMS5003;36494;50.730;-1.932;2022-09-03T03:49:07;56;51;
49644;PMS5003;36494;50.730;-1.932;2022-09-03T03:51:32;55;51;
49644;PMS5003;36494;50.730;-1.932;2022-09-03T03:53:57;55;52;
49644;PMS5003;36494;50.730;-1.932;2022-09-03T03:56:23;56;55;
49644;PMS5003;36494;50.730;-1.932;2022-09-03T03:58:48;58;56;
49644;PMS5003;36494;50.730;-1.932;2022-09-03T04:01:14;60;56;
49644;PMS5003;36494;50.730;-1.932;2022-09-03T04:03:39;53;51;
49644;PMS5003;36494;50.730;-1.932;2022-09-03T04:06:04;55;54;
49644;PMS5003;36494;50.730;-1.932;2022-09-03T04:08:30;55;52;
49644;PMS5003;36494;50.730;-1.932;2022-09-03T04:10:58;57;53;
49644;PMS5003;36494;50.730;-1.932;2022-09-03T04:13:20;56;54;
49644;PMS5003;36494;50.730;-1.932;2022-09-03T04:15:46;63;59;
49644;PMS5003;36494;50.730;-1.932;2022-09-03T04:18:11;59;57;
49644;PMS5003;36494;50.730;-1.932;2022-09-03T04:20:37;54;51;
49644;PMS5003;36494;50.730;-1.932;2022-09-03T04:23:03;64;60;
49644;PMS5003;36494;50.730;-1.932;2022-09-03T04:25:28;65;62;
49644;PMS5003;36494;50.730;-1.932;2022-09-03T04:27:54;57;55;
49644;PMS5003;36494;50.730;-1.932;2022-09-03T04:30:19;59;57;
49644;PMS5003;36494;50.730;-1.932;2022-09-03T04:32:45;53;53;
49644;PMS5003;36494;50.730;-1.932;2022-09-03T04:35:10;55;53;
49644;PMS5003;36494;50.730;-1.932;2022-09-03T04:37:35;60;57;
49644;PMS5003;36494;50.730;-1.932;2022-09-03T04:40:01;56;55;
49644;PMS5003;36494;50.730;-1.932;2022-09-03T04:42:26;54;52;
49644;PMS5003;36494;50.730;-1.932;2022-09-03T04:44:51;59;58;
49644;PMS5003;36494;50.730;-1.932;2022-09-03T04:47:16;54;52;
49644;PMS5003;36494;50.730;-1.932;2022-09-03T04:49:42;55;54;
49644;PMS5003;36494;50.730;-1.932;2022-09-03T04:52:07;49;48;
49644;PMS5003;36494;50.730;-1.932;2022-09-03T04:54:32;49;48;
49644;PMS5003;36494;50.730;-1.932;2022-09-03T04:56:58;47;46;
49644;PMS5003;36494;50.730;-1.932;2022-09-03T04:59:23;44;43;
49644;PMS5003;36494;50.730;-1.932;2022-09-03T05:01:48;44;43;
49644;PMS5003;36494;50.730;-1.932;2022-09-03T05:04:13;44;44;
49644;PMS5003;36494;50.730;-1.932;2022-09-03T05:06:39;45;43;
49644;PMS5003;36494;50.730;-1.932;2022-09-03T05:09:05;44;40;
49644;PMS5003;36494;50.730;-1.932;2022-09-03T05:11:30;45;43;
49644;PMS5003;36494;50.730;-1.932;2022-09-03T05:13:56;50;48;
49644;PMS5003;36494;50.730;-1.932;2022-09-03T05:16:21;44;43;
49644;PMS5003;36494;50.730;-1.932;2022-09-03T05:18:47;47;44;
49644;PMS5003;36494;50.730;-1.932;2022-09-03T05:21:13;47;47;
49644;PMS5003;36494;50.730;-1.932;2022-09-03T05:23:38;45;43;
49644;PMS5003;36494;50.730;-1.932;2022-09-03T05:26:04;47;45;
49644;PMS5003;36494;50.730;-1.932;2022-09-03T05:28:29;44;42;
49644;PMS5003;36494;50.730;-1.932;2022-09-03T05:30:58;46;45;
49644;PMS5003;36494;50.730;-1.932;2022-09-03T05:33:20;48;47;
49644;PMS5003;36494;50.730;-1.932;2022-09-03T05:35:45;46;44;
49644;PMS5003;36494;50.730;-1.932;2022-09-03T05:38:11;42;42;
49644;PMS5003;36494;50.730;-1.932;2022-09-03T05:40:37;44;44;
49644;PMS5003;36494;50.730;-1.932;2022-09-03T05:43:02;45;44;
49644;PMS5003;36494;50.730;-1.932;2022-09-03T05:45:27;44;42;
49644;PMS5003;36494;50.730;-1.932;2022-09-03T05:47:52;41;41;
49644;PMS5003;36494;50.730;-1.932;2022-09-03T05:50:18;46;45;
49644;PMS5003;36494;50.730;-1.932;2022-09-03T05:52:43;44;42;
49644;PMS5003;36494;50.730;-1.932;2022-09-03T05:55:09;44;41;
49644;PMS5003;36494;50.730;-1.932;2022-09-03T05:57:34;45;44;
49644;PMS5003;36494;50.730;-1.932;2022-09-03T05:59:59;42;41;
49644;PMS5003;36494;50.730;-1.932;2022-09-03T06:02:24;45;44;
49644;PMS5003;36494;50.730;-1.932;2022-09-03T06:04:50;41;39;
49644;PMS5003;36494;50.730;-1.932;2022-09-03T06:07:15;51;49;
49644;PMS5003;36494;50.730;-1.932;2022-09-03T06:09:41;46;43;
49644;PMS5003;36494;50.730;-1.932;2022-09-03T06:12:06;50;47;
49644;PMS5003;36494;50.730;-1.932;2022-09-03T06:14:31;49;45;
49644;PMS5003;36494;50.730;-1.932;2022-09-03T06:16:57;49;48;
49644;PMS5003;36494;50.730;-1.932;2022-09-03T06:19:22;49;46;
49644;PMS5003;36494;50.730;-1.932;2022-09-03T06:21:48;49;47;
49644;PMS5003;36494;50.730;-1.932;2022-09-03T06:24:14;51;48;
49644;PMS5003;36494;50.730;-1.932;2022-09-03T06:26:38;51;47;
49644;PMS5003;36494;50.730;-1.932;2022-09-03T06:29:04;49;48;
49644;PMS5003;36494;50.730;-1.932;2022-09-03T06:31:29;50;48;
49644;PMS5003;36494;50.730;-1.932;2022-09-03T06:33:55;44;42;
49644;PMS5003;36494;50.730;-1.932;2022-09-03T06:36:21;52;49;
49644;PMS5003;36494;50.730;-1.932;2022-09-03T06:38:46;48;46;
49644;PMS5003;36494;50.730;-1.932;2022-09-03T06:41:13;49;46;
49644;PMS5003;36494;50.730;-1.932;2022-09-03T06:43:38;49;47;
49644;PMS5003;36494;50.730;-1.932;2022-09-03T06:46:04;49;47;
49644;PMS5003;36494;50.730;-1.932;2022-09-03T06:48:29;42;41;
49644;PMS5003;36494;50.730;-1.932;2022-09-03T06:50:55;53;49;
49644;PMS5003;36494;50.730;-1.932;2022-09-03T06:53:21;50;49;
49644;PMS5003;36494;50.730;-1.932;2022-09-03T06:58:10;50;48;
49644;PMS5003;36494;50.730;-1.932;2022-09-03T07:00:35;51;46;
49644;PMS5003;36494;50.730;-1.932;2022-09-03T07:03:00;50;49;
49644;PMS5003;36494;50.730;-1.932;2022-09-03T07:05:25;48;45;
49644;PMS5003;36494;50.730;-1.932;2022-09-03T07:07:51;51;47;
49644;PMS5003;36494;50.730;-1.932;2022-09-03T07:10:17;48;48;
49644;PMS5003;36494;50.730;-1.932;2022-09-03T07:12:42;48;46;
49644;PMS5003;36494;50.730;-1.932;2022-09-03T07:15:08;48;47;
49644;PMS5003;36494;50.730;-1.932;2022-09-03T07:17:33;51;48;
49644;PMS5003;36494;50.730;-1.932;2022-09-03T07:19:59;46;46;
49644;PMS5003;36494;50.730;-1.932;2022-09-03T07:22:24;43;41;
49644;PMS5003;36494;50.730;-1.932;2022-09-03T07:24:49;48;46;
49644;PMS5003;36494;50.730;-1.932;2022-09-03T07:27:15;48;46;
49644;PMS5003;36494;50.730;-1.932;2022-09-03T07:29:40;49;48;
49644;PMS5003;36494;50.730;-1.932;2022-09-03T07:32:06;45;42;
49644;PMS5003;36494;50.730;-1.932;2022-09-03T07:34:31;42;42;
49644;PMS5003;36494;50.730;-1.932;2022-09-03T07:36:57;35;34;
49644;PMS5003;36494;50.730;-1.932;2022-09-03T07:39:23;42;41;
49644;PMS5003;36494;50.730;-1.932;2022-09-03T07:41:48;40;39;
49644;PMS5003;36494;50.730;-1.932;2022-09-03T07:44:15;41;37;
49644;PMS5003;36494;50.730;-1.932;2022-09-03T07:46:39;38;36;
49644;PMS5003;36494;50.730;-1.932;2022-09-03T07:49:05;34;33;
49644;PMS5003;36494;50.730;-1.932;2022-09-03T07:51:31;36;34;
49644;PMS5003;36494;50.730;-1.932;2022-09-03T07:53:57;38;35;
49644;PMS5003;36494;50.730;-1.932;2022-09-03T07:56:21;32;31;
49644;PMS5003;36494;50.730;-1.932;2022-09-03T07:58:47;31;29;
49644;PMS5003;36494;50.730;-1.932;2022-09-03T08:01:13;29;28;
49644;PMS5003;36494;50.730;-1.932;2022-09-03T08:03:38;31;30;
49644;PMS5003;36494;50.730;-1.932;2022-09-03T08:06:05;30;30;
49644;PMS5003;36494;50.730;-1.932;2022-09-03T08:08:29;31;31;
49644;PMS5003;36494;50.730;-1.932;2022-09-03T08:10:54;27;25;
49644;PMS5003;36494;50.730;-1.932;2022-09-03T08:13:20;27;26;
49644;PMS5003;36494;50.730;-1.932;2022-09-03T08:18:10;24;24;
49644;PMS5003;36494;50.730;-1.932;2022-09-03T08:20:36;27;27;
49644;PMS5003;36494;50.730;-1.932;2022-09-03T08:23:01;26;26;
49644;PMS5003;36494;50.730;-1.932;2022-09-03T08:25:26;29;28;
49644;PMS5003;36494;50.730;-1.932;2022-09-03T08:27:52;26;25;
49644;PMS5003;36494;50.730;-1.932;2022-09-03T08:30:17;32;32;
49644;PMS5003;36494;50.730;-1.932;2022-09-03T08:32:42;30;30;
49644;PMS5003;36494;50.730;-1.932;2022-09-03T08:35:08;35;34;
49644;PMS5003;36494;50.730;-1.932;2022-09-03T08:37:34;34;33;
49644;PMS5003;36494;50.730;-1.932;2022-09-03T08:39:59;34;32;
49644;PMS5003;36494;50.730;-1.932;2022-09-03T08:42:27;39;37;
49644;PMS5003;36494;50.730;-1.932;2022-09-03T08:44:50;38;36;
49644;PMS5003;36494;50.730;-1.932;2022-09-03T08:47:16;31;31;
49644;PMS5003;36494;50.730;-1.932;2022-09-03T08:49:42;34;34;
49644;PMS5003;36494;50.730;-1.932;2022-09-03T08:52:07;37;37;
49644;PMS5003;36494;50.730;-1.932;2022-09-03T08:54:31;47;46;
49644;PMS5003;36494;50.730;-1.932;2022-09-03T08:56:58;47;47;
49644;PMS5003;36494;50.730;-1.932;2022-09-03T08:59:23;49;46;
49644;PMS5003;36494;50.730;-1.932;2022-09-03T09:01:50;52;49;
49644;PMS5003;36494;50.730;-1.932;2022-09-03T09:04:16;51;50;
49644;PMS5003;36494;50.730;-1.932;2022-09-03T09:06:40;50;50;
49644;PMS5003;36494;50.730;-1.932;2022-09-03T09:09:08;50;50;
49644;PMS5003;36494;50.730;-1.932;2022-09-03T09:11:33;46;44;
49644;PMS5003;36494;50.730;-1.932;2022-09-03T09:13:57;49;48;
49644;PMS5003;36494;50.730;-1.932;2022-09-03T09:16:22;57;55;
49644;PMS5003;36494;50.730;-1.932;2022-09-03T09:18:51;50;49;
49644;PMS5003;36494;50.730;-1.932;2022-09-03T09:21:13;58;55;
49644;PMS5003;36494;50.730;-1.932;2022-09-03T09:23:39;53;51;
49644;PMS5003;36494;50.730;-1.932;2022-09-03T09:26:03;56;51;
49644;PMS5003;36494;50.730;-1.932;2022-09-03T09:28:29;54;51;
49644;PMS5003;36494;50.730;-1.932;2022-09-03T09:30:54;46;45;
49644;PMS5003;36494;50.730;-1.932;2022-09-03T09:33:19;43;43;
49644;PMS5003;36494;50.730;-1.932;2022-09-03T09:35:45;52;50;
49644;PMS5003;36494;50.730;-1.932;2022-09-03T09:38:11;47;44;
49644;PMS5003;36494;50.730;-1.932;2022-09-03T09:40:37;52;49;
49644;PMS5003;36494;50.730;-1.932;2022-09-03T09:43:02;47;47;
49644;PMS5003;36494;50.730;-1.932;2022-09-03T09:45:27;46;43;
49644;PMS5003;36494;50.730;-1.932;2022-09-03T09:47:52;39;38;
49644;PMS5003;36494;50.730;-1.932;2022-09-03T09:50:18;41;38;
49644;PMS5003;36494;50.730;-1.932;2022-09-03T09:52:42;46;41;
49644;PMS5003;36494;50.730;-1.932;2022-09-03T09:55:09;40;39;
49644;PMS5003;36494;50.730;-1.932;2022-09-03T09:57:33;40;40;
49644;PMS5003;36494;50.730;-1.932;2022-09-03T10:00:03;42;38;
49644;PMS5003;36494;50.730;-1.932;2022-09-03T10:02:25;42;40;
49644;PMS5003;36494;50.730;-1.932;2022-09-03T10:04:50;40;39;
49644;PMS5003;36494;50.730;-1.932;2022-09-03T10:07:20;40;38;
49644;PMS5003;36494;50.730;-1.932;2022-09-03T10:09:41;42;39;
49644;PMS5003;36494;50.730;-1.932;2022-09-03T10:12:08;41;38;
49644;PMS5003;36494;50.730;-1.932;2022-09-03T10:14:33;36;36;
49644;PMS5003;36494;50.730;-1.932;2022-09-03T10:16:59;31;31;
49644;PMS5003;36494;50.730;-1.932;2022-09-03T10:19:24;38;37;
49644;PMS5003;36494;50.730;-1.932;2022-09-03T10:21:51;38;37;
49644;PMS5003;36494;50.730;-1.932;2022-09-03T10:24:22;35;34;
49644;PMS5003;36494;50.730;-1.932;2022-09-03T10:26:40;34;33;
49644;PMS5003;36494;50.730;-1.932;2022-09-03T10:29:05;32;31;
49644;PMS5003;36494;50.730;-1.932;2022-09-03T10:31:35;35;34;
49644;PMS5003;36494;50.730;-1.932;2022-09-03T10:33:58;36;34;
49644;PMS5003;36494;50.730;-1.932;2022-09-03T10:36:23;29;29;
49644;PMS5003;36494;50.730;-1.932;2022-09-03T10:38:49;32;32;
49644;PMS5003;36494;50.730;-1.932;2022-09-03T10:41:17;34;33;
49644;PMS5003;36494;50.730;-1.932;2022-09-03T10:43:43;37;36;
49644;PMS5003;36494;50.730;-1.932;2022-09-03T10:46:05;33;32;
49644;PMS5003;36494;50.730;-1.932;2022-09-03T10:50:56;27;27;
49644;PMS5003;36494;50.730;-1.932;2022-09-03T10:53:26;34;33;
49644;PMS5003;36494;50.730;-1.932;2022-09-03T10:55:47;31;30;
49644;PMS5003;36494;50.730;-1.932;2022-09-03T10:58:18;32;31;
49644;PMS5003;36494;50.730;-1.932;2022-09-03T11:00:38;32;31;
49644;PMS5003;36494;50.730;-1.932;2022-09-03T11:03:14;27;27;
49644;PMS5003;36494;50.730;-1.932;2022-09-03T11:05:28;28;28;
49644;PMS5003;36494;50.730;-1.932;2022-09-03T11:07:56;30;28;
49644;PMS5003;36494;50.730;-1.932;2022-09-03T11:10:20;31;30;
49644;PMS5003;36494;50.730;-1.932;2022-09-03T11:12:45;26;25;
49644;PMS5003;36494;50.730;-1.932;2022-09-03T11:15:11;24;24;
49644;PMS5003;36494;50.730;-1.932;2022-09-03T11:17:36;27;27;
49644;PMS5003;36494;50.730;-1.932;2022-09-03T11:20:03;30;29;
49644;PMS5003;36494;50.730;-1.932;2022-09-03T11:22:26;30;30;
49644;PMS5003;36494;50.730;-1.932;2022-09-03T11:24:53;30;30;
49644;PMS5003;36494;50.730;-1.932;2022-09-03T11:27:20;27;26;
49644;PMS5003;36494;50.730;-1.932;2022-09-03T11:29:44;28;27;
49644;PMS5003;36494;50.730;-1.932;2022-09-03T11:32:08;33;31;
49644;PMS5003;36494;50.730;-1.932;2022-09-03T11:37:04;34;32;
49644;PMS5003;36494;50.730;-1.932;2022-09-03T11:39:25;33;33;
49644;PMS5003;36494;50.730;-1.932;2022-09-03T11:41:55;33;32;
49644;PMS5003;36494;50.730;-1.932;2022-09-03T11:44:16;39;38;
49644;PMS5003;36494;50.730;-1.932;2022-09-03T11:46:40;34;32;
49644;PMS5003;36494;50.730;-1.932;2022-09-03T11:49:09;35;34;
49644;PMS5003;36494;50.730;-1.932;2022-09-03T11:51:32;34;33;
49644;PMS5003;36494;50.730;-1.932;2022-09-03T11:53:57;32;32;
49644;PMS5003;36494;50.730;-1.932;2022-09-03T11:56:22;33;32;
49644;PMS5003;36494;50.730;-1.932;2022-09-03T12:01:14;34;33;
49644;PMS5003;36494;50.730;-1.932;2022-09-03T12:03:40;33;32;
49644;PMS5003;36494;50.730;-1.932;2022-09-03T12:06:07;31;30;
49644;PMS5003;36494;50.730;-1.932;2022-09-03T12:08:40;31;31;
49644;PMS5003;36494;50.730;-1.932;2022-09-03T12:10:55;30;29;
49644;PMS5003;36494;50.730;-1.932;2022-09-03T12:13:23;27;27;
49644;PMS5003;36494;50.730;-1.932;2022-09-03T12:15:50;28;28;
49644;PMS5003;36494;50.730;-1.932;2022-09-03T12:18:12;28;28;
49644;PMS5003;36494;50.730;-1.932;2022-09-03T12:20:37;23;23;
49644;PMS5003;36494;50.730;-1.932;2022-09-03T12:23:02;24;23;
49644;PMS5003;36494;50.730;-1.932;2022-09-03T12:25:28;25;24;
49644;PMS5003;36494;50.730;-1.932;2022-09-03T12:27:54;22;22;
49644;PMS5003;36494;50.730;-1.932;2022-09-03T12:30:20;24;22;
49644;PMS5003;36494;50.730;-1.932;2022-09-03T12:32:45;23;21;
49644;PMS5003;36494;50.730;-1.932;2022-09-03T12:35:11;23;22;
49644;PMS5003;36494;50.730;-1.932;2022-09-03T12:37:36;23;23;
49644;PMS5003;36494;50.730;-1.932;2022-09-03T12:40:01;25;23;
49644;PMS5003;36494;50.730;-1.932;2022-09-03T12:42:27;24;23;
49644;PMS5003;36494;50.730;-1.932;2022-09-03T12:44:52;24;23;
49644;PMS5003;36494;50.730;-1.932;2022-09-03T12:47:18;24;23;
49644;PMS5003;36494;50.730;-1.932;2022-09-03T12:49:44;21;21;
49644;PMS5003;36494;50.730;-1.932;2022-09-03T12:52:12;24;23;
49644;PMS5003;36494;50.730;-1.932;2022-09-03T12:54:35;16;16;
49644;PMS5003;36494;50.730;-1.932;2022-09-03T12:57:00;17;16;
49644;PMS5003;36494;50.730;-1.932;2022-09-03T12:59:26;15;15;
49644;PMS5003;36494;50.730;-1.932;2022-09-03T13:01:52;14;14;
49644;PMS5003;36494;50.730;-1.932;2022-09-03T13:04:17;17;17;
49644;PMS5003;36494;50.730;-1.932;2022-09-03T13:06:44;16;16;
49644;PMS5003;36494;50.730;-1.932;2022-09-03T13:09:07;15;15;
49644;PMS5003;36494;50.730;-1.932;2022-09-03T13:11:32;14;14;
49644;PMS5003;36494;50.730;-1.932;2022-09-03T13:13:59;15;14;
49644;PMS5003;36494;50.730;-1.932;2022-09-03T13:16:42;16;15;
49644;PMS5003;36494;50.730;-1.932;2022-09-03T13:18:49;15;15;
49644;PMS5003;36494;50.730;-1.932;2022-09-03T13:21:14;15;15;
49644;PMS5003;36494;50.730;-1.932;2022-09-03T13:23:42;15;15;
49644;PMS5003;36494;50.730;-1.932;2022-09-03T13:26:07;18;17;
49644;PMS5003;36494;50.730;-1.932;2022-09-03T13:28:34;16;16;
49644;PMS5003;36494;50.730;-1.932;2022-09-03T13:30:57;19;18;
49644;PMS5003;36494;50.730;-1.932;2022-09-03T13:33:22;17;17;
49644;PMS5003;36494;50.730;-1.932;2022-09-03T13:35:48;17;16;
49644;PMS5003;36494;50.730;-1.932;2022-09-03T13:38:16;18;17;
49644;PMS5003;36494;50.730;-1.932;2022-09-03T13:40:40;18;18;
49644;PMS5003;36494;50.730;-1.932;2022-09-03T13:43:17;18;16;
49644;PMS5003;36494;50.730;-1.932;2022-09-03T13:45:30;16;16;
49644;PMS5003;36494;50.730;-1.932;2022-09-03T13:47:56;22;20;
49644;PMS5003;36494;50.730;-1.932;2022-09-03T13:50:20;16;16;
49644;PMS5003;36494;50.730;-1.932;2022-09-03T13:52:48;20;18;
49644;PMS5003;36494;50.730;-1.932;2022-09-03T13:55:13;24;22;
49644;PMS5003;36494;50.730;-1.932;2022-09-03T13:57:39;22;21;
49644;PMS5003;36494;50.730;-1.932;2022-09-03T14:00:05;25;20;
49644;PMS5003;36494;50.730;-1.932;2022-09-03T14:02:32;24;23;
49644;PMS5003;36494;50.730;-1.932;2022-09-03T14:05:00;23;22;
49644;PMS5003;36494;50.730;-1.932;2022-09-03T14:07:22;20;20;
49644;PMS5003;36494;50.730;-1.932;2022-09-03T14:09:47;21;19;
49644;PMS5003;36494;50.730;-1.932;2022-09-03T14:12:12;22;21;
49644;PMS5003;36494;50.730;-1.932;2022-09-03T14:14:40;19;19;
49644;PMS5003;36494;50.730;-1.932;2022-09-03T14:17:04;21;20;
49644;PMS5003;36494;50.730;-1.932;2022-09-03T14:19:31;21;21;
49644;PMS5003;36494;50.730;-1.932;2022-09-03T14:21:54;18;18;
49644;PMS5003;36494;50.730;-1.932;2022-09-03T14:24:20;19;19;
49644;PMS5003;36494;50.730;-1.932;2022-09-03T14:26:49;17;17;
49644;PMS5003;36494;50.730;-1.932;2022-09-03T14:29:13;14;14;
49644;PMS5003;36494;50.730;-1.932;2022-09-03T14:31:40;16;15;
49644;PMS5003;36494;50.730;-1.932;2022-09-03T14:34:03;14;14;
49644;PMS5003;36494;50.730;-1.932;2022-09-03T14:36:27;16;15;
49644;PMS5003;36494;50.730;-1.932;2022-09-03T14:38:56;11;11;
49644;PMS5003;36494;50.730;-1.932;2022-09-03T14:41:21;11;11;
49644;PMS5003;36494;50.730;-1.932;2022-09-03T14:46:12;6;6;
49644;PMS5003;36494;50.730;-1.932;2022-09-03T14:48:35;6;6;
49644;PMS5003;36494;50.730;-1.932;2022-09-03T14:51:03;6;6;
49644;PMS5003;36494;50.730;-1.932;2022-09-03T14:53:29;4;4;
49644;PMS5003;36494;50.730;-1.932;2022-09-03T14:55:52;5;5;
49644;PMS5003;36494;50.730;-1.932;2022-09-03T14:58:18;4;4;
49644;PMS5003;36494;50.730;-1.932;2022-09-03T15:00:43;4;4;
49644;PMS5003;36494;50.730;-1.932;2022-09-03T15:03:12;5;5;
49644;PMS5003;36494;50.730;-1.932;2022-09-03T15:05:38;5;4;
49644;PMS5003;36494;50.730;-1.932;2022-09-03T15:07:57;5;5;
49644;PMS5003;36494;50.730;-1.932;2022-09-03T15:10:25;5;5;
49644;PMS5003;36494;50.730;-1.932;2022-09-03T15:12:47;6;4;
49644;PMS5003;36494;50.730;-1.932;2022-09-03T15:15:15;4;4;
49644;PMS5003;36494;50.730;-1.932;2022-09-03T15:17:46;5;5;
49644;PMS5003;36494;50.730;-1.932;2022-09-03T15:20:08;3;3;
49644;PMS5003;36494;50.730;-1.932;2022-09-03T15:22:33;4;4;
49644;PMS5003;36494;50.730;-1.932;2022-09-03T15:24:55;6;5;
49644;PMS5003;36494;50.730;-1.932;2022-09-03T15:27:31;5;5;
49644;PMS5003;36494;50.730;-1.932;2022-09-03T15:29:47;4;4;
49644;PMS5003;36494;50.730;-1.932;2022-09-03T15:32:11;3;3;
49644;PMS5003;36494;50.730;-1.932;2022-09-03T15:34:38;5;5;
49644;PMS5003;36494;50.730;-1.932;2022-09-03T15:37:00;3;3;
49644;PMS5003;36494;50.730;-1.932;2022-09-03T15:39:26;4;4;
49644;PMS5003;36494;50.730;-1.932;2022-09-03T15:41:51;3;3;
49644;PMS5003;36494;50.730;-1.932;2022-09-03T15:44:17;5;5;
49644;PMS5003;36494;50.730;-1.932;2022-09-03T15:46:47;5;5;
49644;PMS5003;36494;50.730;-1.932;2022-09-03T15:49:08;5;5;
49644;PMS5003;36494;50.730;-1.932;2022-09-03T15:51:33;5;5;
49644;PMS5003;36494;50.730;-1.932;2022-09-03T15:53:59;5;5;
49644;PMS5003;36494;50.730;-1.932;2022-09-03T15:56:24;7;7;
49644;PMS5003;36494;50.730;-1.932;2022-09-03T15:58:50;7;7;
49644;PMS5003;36494;50.730;-1.932;2022-09-03T16:01:19;5;5;
49644;PMS5003;36494;50.730;-1.932;2022-09-03T16:03:40;5;5;
49644;PMS5003;36494;50.730;-1.932;2022-09-03T16:06:05;7;7;